Time,TemperatureF,DewpointF,PressureIn,WindDirection,WindDirectionDegrees,WindSpeedMPH,WindSpeedGustMPH,Humidity,HourlyPrecipIn,Conditions,Clouds,dailyrainin,SoftwareType,DateUTC
2013-04-06 00:03:00,53.1,33.9,29.41,WSW,247,8.3,8.7,48,0.00,,---,0.00,VWS V14.01,2013-04-06 07:03:00,
2013-04-06 00:08:00,53.1,33.9,29.41,WSW,241,7.8,10.5,48,0.00,,---,0.00,VWS V14.01,2013-04-06 07:08:00,
2013-04-06 00:13:00,53.1,33.9,29.41,West,269,6.3,8.7,48,0.00,,---,0.00,VWS V14.01,2013-04-06 07:13:00,
2013-04-06 00:18:00,53.2,34.1,29.41,West,272,8.7,10.5,48,0.00,,---,0.00,VWS V14.01,2013-04-06 07:18:00,
2013-04-06 00:23:00,53.2,34.1,29.41,WSW,247,7.4,11.0,48,0.00,,---,0.00,VWS V14.01,2013-04-06 07:23:00,
2013-04-06 00:28:00,53.2,33.5,29.41,WSW,252,6.3,9.2,47,0.00,,---,0.00,VWS V14.01,2013-04-06 07:28:00,
2013-04-06 00:33:00,53.4,33.7,29.41,West,272,6.9,11.0,47,0.00,,---,0.00,VWS V14.01,2013-04-06 07:33:00,
2013-04-06 00:38:00,53.4,33.7,29.41,West,263,7.8,9.2,47,0.00,,---,0.00,VWS V14.01,2013-04-06 07:38:00,
2013-04-06 00:43:00,53.6,33.9,29.41,West,261,7.4,7.8,47,0.00,,---,0.00,VWS V14.01,2013-04-06 07:43:00,
2013-04-06 00:48:00,53.6,33.9,29.41,West,260,4.9,6.9,47,0.00,,---,0.00,VWS V14.01,2013-04-06 07:48:00,
2013-04-06 00:53:00,53.6,33.9,29.41,WSW,256,6.3,7.8,47,0.00,,---,0.00,VWS V14.01,2013-04-06 07:53:00,
2013-04-06 00:58:00,53.6,33.9,29.41,WSW,254,4.9,7.8,47,0.00,,---,0.00,VWS V14.01,2013-04-06 07:58:00,
2013-04-06 01:03:00,53.4,33.2,29.41,SW,236,5.8,6.9,46,0.00,,---,0.00,VWS V14.01,2013-04-06 08:03:00,
2013-04-06 01:08:00,53.4,32.6,29.41,SW,234,6.7,8.3,45,0.00,,---,0.00,VWS V14.01,2013-04-06 08:08:00,
2013-04-06 01:13:00,53.4,32.6,29.41,SW,235,6.9,9.2,45,0.00,,---,0.00,VWS V14.01,2013-04-06 08:13:00,
2013-04-06 01:18:00,53.6,32.8,29.41,SW,235,6.7,9.2,45,0.00,,---,0.00,VWS V14.01,2013-04-06 08:18:00,
2013-04-06 01:23:00,53.8,33.0,29.41,SW,236,6.9,9.2,45,0.00,,---,0.00,VWS V14.01,2013-04-06 08:23:00,
2013-04-06 01:28:00,53.8,33.0,29.41,WSW,245,6.9,7.4,45,0.00,,---,0.00,VWS V14.01,2013-04-06 08:28:00,
2013-04-06 01:33:00,54.0,33.1,29.41,WSW,240,6.3,9.6,45,0.00,,---,0.00,VWS V14.01,2013-04-06 08:33:00,
2013-04-06 01:38:00,54.0,33.7,29.41,WSW,240,8.7,10.1,46,0.00,,---,0.00,VWS V14.01,2013-04-06 08:38:00,
2013-04-06 01:43:00,54.0,33.7,29.41,SW,234,6.7,7.4,46,0.00,,---,0.00,VWS V14.01,2013-04-06 08:43:00,
2013-04-06 01:48:00,54.0,33.7,29.41,WSW,246,7.8,8.3,46,0.00,,---,0.00,VWS V14.01,2013-04-06 08:48:00,
2013-04-06 01:53:00,54.0,33.7,29.41,SW,214,7.4,8.3,46,0.00,,---,0.00,VWS V14.01,2013-04-06 08:53:00,
2013-04-06 01:58:00,54.1,33.8,29.41,SSW,211,6.3,6.9,46,0.00,,---,0.00,VWS V14.01,2013-04-06 08:58:00,
2013-04-06 02:03:00,54.1,33.8,29.41,SSW,205,8.7,9.2,46,0.00,,---,0.00,VWS V14.01,2013-04-06 09:03:00,
2013-04-06 02:08:00,54.1,33.8,29.41,SSW,213,8.3,9.2,46,0.00,,---,0.00,VWS V14.01,2013-04-06 09:08:00,
2013-04-06 02:13:00,54.1,33.3,29.41,SW,217,7.4,11.0,45,0.00,,---,0.00,VWS V14.01,2013-04-06 09:13:00,
2013-04-06 02:18:00,54.3,33.5,29.41,SW,219,6.9,7.8,45,0.00,,---,0.00,VWS V14.01,2013-04-06 09:18:00,
2013-04-06 02:23:00,54.3,33.5,29.41,SSW,212,6.9,7.8,45,0.00,,---,0.00,VWS V14.01,2013-04-06 09:23:00,
2013-04-06 02:28:00,54.3,32.9,29.41,SW,226,7.8,9.2,44,0.00,,---,0.00,VWS V14.01,2013-04-06 09:28:00,
2013-04-06 02:33:00,54.3,32.9,29.41,SW,217,7.4,7.4,44,0.00,,---,0.00,VWS V14.01,2013-04-06 09:33:00,
2013-04-06 02:39:00,54.5,31.9,29.41,SW,226,9.2,10.1,42,0.00,,---,0.00,VWS V14.01,2013-04-06 09:39:00,
2013-04-06 02:44:00,54.3,31.7,29.41,SW,219,5.4,7.8,42,0.00,,---,0.00,VWS V14.01,2013-04-06 09:44:00,
2013-04-06 02:50:00,54.5,31.9,29.38,SW,228,5.8,6.7,42,0.00,,---,0.00,VWS V14.01,2013-04-06 09:50:00,
2013-04-06 02:56:00,54.5,31.9,29.38,SW,236,7.4,7.4,42,0.00,,---,0.00,VWS V14.01,2013-04-06 09:56:00,
2013-04-06 03:01:00,54.5,31.3,29.38,SW,232,8.7,10.5,41,0.00,,---,0.00,VWS V14.01,2013-04-06 10:01:00,
2013-04-06 03:06:00,54.5,31.3,29.38,WSW,253,6.3,8.7,41,0.00,,---,0.00,VWS V14.01,2013-04-06 10:06:00,
2013-04-06 03:12:00,54.5,31.3,29.38,WSW,248,4.9,6.7,41,0.00,,---,0.00,VWS V14.01,2013-04-06 10:12:00,
2013-04-06 03:17:00,54.3,31.7,29.38,WSW,247,7.4,7.4,42,0.00,,---,0.00,VWS V14.01,2013-04-06 10:17:00,
2013-04-06 03:22:00,54.3,31.7,29.38,WSW,254,5.8,7.4,42,0.00,,---,0.00,VWS V14.01,2013-04-06 10:22:00,
2013-04-06 03:27:00,54.3,31.7,29.38,WSW,238,7.8,8.7,42,0.00,,---,0.00,VWS V14.01,2013-04-06 10:27:00,
2013-04-06 03:32:00,54.5,31.9,29.38,WSW,254,8.3,11.6,42,0.00,,---,0.00,VWS V14.01,2013-04-06 10:32:00,
2013-04-06 03:37:00,54.5,31.9,29.38,WSW,238,10.5,11.0,42,0.00,,---,0.00,VWS V14.01,2013-04-06 10:37:00,
2013-04-06 03:42:00,54.5,31.3,29.38,SW,233,5.8,9.6,41,0.00,,---,0.00,VWS V14.01,2013-04-06 10:42:00,
2013-04-06 03:47:00,54.5,31.9,29.38,SW,225,6.9,9.2,42,0.00,,---,0.00,VWS V14.01,2013-04-06 10:47:00,
2013-04-06 03:52:00,54.5,31.9,29.38,SW,232,9.2,11.6,42,0.00,,---,0.00,VWS V14.01,2013-04-06 10:52:00,
2013-04-06 03:58:00,54.5,32.5,29.38,SW,222,6.7,9.6,43,0.00,,---,0.00,VWS V14.01,2013-04-06 10:58:00,
2013-04-06 04:03:00,54.5,33.0,29.38,WSW,254,7.4,7.4,44,0.00,,---,0.00,VWS V14.01,2013-04-06 11:03:00,
2013-04-06 04:08:00,54.5,33.6,29.38,WSW,240,6.9,8.3,45,0.00,,---,0.00,VWS V14.01,2013-04-06 11:08:00,
2013-04-06 04:13:00,54.5,34.2,29.38,SW,236,6.3,7.8,46,0.00,,---,0.00,VWS V14.01,2013-04-06 11:13:00,
2013-04-06 04:18:00,54.5,34.2,29.38,WSW,247,9.2,10.1,46,0.00,,---,0.00,VWS V14.01,2013-04-06 11:18:00,
2013-04-06 04:23:00,54.3,33.5,29.38,SW,234,7.4,11.2,45,0.00,,---,0.00,VWS V14.01,2013-04-06 11:23:00,
2013-04-06 04:28:00,54.5,33.6,29.38,SW,231,6.7,8.7,45,0.00,,---,0.00,VWS V14.01,2013-04-06 11:28:00,
2013-04-06 04:34:00,54.5,33.6,29.38,SW,220,6.7,9.2,45,0.00,,---,0.00,VWS V14.01,2013-04-06 11:34:00,
2013-04-06 04:39:00,54.3,33.5,29.38,SW,230,6.3,7.8,45,0.00,,---,0.00,VWS V14.01,2013-04-06 11:39:00,
2013-04-06 04:44:00,54.3,34.0,29.38,SW,232,8.3,8.3,46,0.00,,---,0.00,VWS V14.01,2013-04-06 11:44:00,
2013-04-06 04:49:00,54.3,33.5,29.38,WSW,247,7.8,7.8,45,0.00,,---,0.00,VWS V14.01,2013-04-06 11:49:00,
2013-04-06 04:54:00,54.3,33.5,29.38,SW,232,8.7,9.2,45,0.00,,---,0.00,VWS V14.01,2013-04-06 11:54:00,
2013-04-06 05:00:00,54.3,34.0,29.38,WSW,240,6.3,7.4,46,0.00,,---,0.00,VWS V14.01,2013-04-06 12:00:00,
2013-04-06 05:05:00,54.1,33.8,29.38,WSW,240,4.5,5.8,46,0.00,,---,0.00,VWS V14.01,2013-04-06 12:05:00,
2013-04-06 05:10:00,54.0,34.2,29.38,SW,231,4.9,5.8,47,0.00,,---,0.00,VWS V14.01,2013-04-06 12:10:00,
2013-04-06 05:15:00,53.8,34.0,29.38,WSW,237,3.6,3.6,47,0.00,,---,0.00,VWS V14.01,2013-04-06 12:15:00,
2013-04-06 05:21:00,53.8,34.6,29.38,WSW,245,3.1,4.0,48,0.00,,---,0.00,VWS V14.01,2013-04-06 12:21:00,
2013-04-06 05:26:00,53.8,34.6,29.38,WSW,238,6.9,7.4,48,0.00,,---,0.00,VWS V14.01,2013-04-06 12:26:00,
2013-04-06 05:31:00,54.0,34.2,29.38,WSW,242,6.9,6.9,47,0.00,,---,0.00,VWS V14.01,2013-04-06 12:31:00,
2013-04-06 05:36:00,54.1,33.8,29.38,WSW,247,7.4,7.8,46,0.00,,---,0.00,VWS V14.01,2013-04-06 12:36:00,
2013-04-06 05:42:00,54.1,33.3,29.38,WSW,238,6.9,8.3,45,0.00,,---,0.00,VWS V14.01,2013-04-06 12:42:00,
2013-04-06 05:48:00,54.1,33.8,29.38,WSW,241,5.8,6.3,46,0.00,,---,0.00,VWS V14.01,2013-04-06 12:48:00,
2013-04-06 05:53:00,54.1,33.8,29.38,WSW,240,5.4,5.8,46,0.00,,---,0.00,VWS V14.01,2013-04-06 12:53:00,
2013-04-06 05:58:00,54.1,34.4,29.38,WSW,242,6.3,6.3,47,0.00,,---,0.00,VWS V14.01,2013-04-06 12:58:00,
2013-04-06 06:04:00,54.1,33.8,29.38,WSW,240,7.4,8.3,46,0.00,,---,0.00,VWS V14.01,2013-04-06 13:04:00,
2013-04-06 06:09:00,54.1,33.8,29.38,WSW,242,7.4,7.4,46,0.00,,---,0.00,VWS V14.01,2013-04-06 13:09:00,
2013-04-06 06:16:00,54.1,33.3,29.38,WSW,248,7.4,7.4,45,0.00,,---,0.00,VWS V14.01,2013-04-06 13:16:00,
2013-04-06 06:21:00,54.3,32.3,29.41,WSW,242,6.7,7.8,43,0.00,,---,0.00,VWS V14.01,2013-04-06 13:21:00,
2013-04-06 06:26:00,54.5,30.7,29.41,WSW,242,9.2,9.2,40,0.00,,---,0.00,VWS V14.01,2013-04-06 13:26:00,
2013-04-06 06:31:00,54.5,30.7,29.41,WSW,249,5.8,6.9,40,0.00,,---,0.00,VWS V14.01,2013-04-06 13:31:00,
2013-04-06 06:36:00,54.5,30.7,29.41,SW,236,5.8,8.7,40,0.00,,---,0.00,VWS V14.01,2013-04-06 13:36:00,
2013-04-06 06:42:00,54.7,30.2,29.41,SW,219,4.9,6.9,39,0.00,,---,0.00,VWS V14.01,2013-04-06 13:42:00,
2013-04-06 06:47:00,54.7,29.6,29.38,SSW,207,5.8,6.7,38,0.00,,---,0.00,VWS V14.01,2013-04-06 13:47:00,
2013-04-06 06:52:00,54.7,29.6,29.38,SSW,207,3.1,5.4,38,0.00,,---,0.00,VWS V14.01,2013-04-06 13:52:00,
2013-04-06 06:58:00,54.5,29.4,29.38,SSW,212,3.6,4.0,38,0.00,,---,0.00,VWS V14.01,2013-04-06 13:58:00,
2013-04-06 07:03:00,54.7,29.6,29.41,SW,227,4.0,4.9,38,0.00,,---,0.00,VWS V14.01,2013-04-06 14:03:00,
2013-04-06 07:08:00,54.9,29.8,29.41,South,179,4.5,5.8,38,0.00,,---,0.00,VWS V14.01,2013-04-06 14:08:00,
2013-04-06 07:13:00,54.9,29.8,29.41,South,180,0.0,0.0,38,0.00,,---,0.00,VWS V14.01,2013-04-06 14:13:00,
2013-04-06 07:18:00,54.9,29.8,29.41,SSW,213,3.6,5.4,38,0.00,,---,0.00,VWS V14.01,2013-04-06 14:18:00,
2013-04-06 07:23:00,55.0,29.9,29.41,South,184,5.4,5.4,38,0.00,,---,0.00,VWS V14.01,2013-04-06 14:23:00,
2013-04-06 07:28:00,55.0,29.3,29.41,South,189,3.1,4.5,37,0.00,,---,0.00,VWS V14.01,2013-04-06 14:28:00,
2013-04-06 07:33:00,55.0,29.3,29.41,SSW,195,0.0,0.0,37,0.00,,---,0.00,VWS V14.01,2013-04-06 14:33:00,
2013-04-06 07:38:00,55.2,29.4,29.41,SW,230,0.0,3.1,37,0.00,,---,0.00,VWS V14.01,2013-04-06 14:38:00,
2013-04-06 07:43:00,55.6,29.7,29.41,SW,216,3.1,4.9,37,0.00,,---,0.00,VWS V14.01,2013-04-06 14:43:00,
2013-04-06 07:48:00,55.8,29.2,29.41,SW,230,4.9,5.8,36,0.00,,---,0.00,VWS V14.01,2013-04-06 14:48:00,
2013-04-06 07:53:00,55.9,29.4,29.41,SW,218,3.6,5.4,36,0.00,,---,0.00,VWS V14.01,2013-04-06 14:53:00,
2013-04-06 07:59:00,55.9,29.4,29.41,SSW,209,3.1,3.6,36,0.00,,---,0.00,VWS V14.01,2013-04-06 14:59:00,
2013-04-06 08:04:00,55.9,29.4,29.41,South,175,2.7,3.6,36,0.00,,---,0.00,VWS V14.01,2013-04-06 15:04:00,
2013-04-06 08:09:00,56.3,29.0,29.41,South,177,4.9,6.3,35,0.00,,---,0.00,VWS V14.01,2013-04-06 15:09:00,
2013-04-06 08:15:00,56.1,28.9,29.41,South,191,4.9,6.7,35,0.00,,---,0.00,VWS V14.01,2013-04-06 15:15:00,
2013-04-06 08:22:00,56.3,29.0,29.41,SSW,193,5.8,5.8,35,0.00,,---,0.00,VWS V14.01,2013-04-06 15:22:00,
2013-04-06 08:27:00,56.5,28.5,29.41,South,184,5.4,5.4,34,0.00,,---,0.00,VWS V14.01,2013-04-06 15:27:00,
2013-04-06 08:32:00,56.7,28.6,29.41,SSW,209,4.9,5.4,34,0.00,,---,0.00,VWS V14.01,2013-04-06 15:32:00,
2013-04-06 08:37:00,56.7,27.9,29.41,SSW,205,4.5,6.3,33,0.00,,---,0.00,VWS V14.01,2013-04-06 15:37:00,
2013-04-06 08:43:00,57.0,27.5,29.41,South,175,3.6,6.3,32,0.00,,---,0.00,VWS V14.01,2013-04-06 15:43:00,
2013-04-06 08:49:00,57.6,28.0,29.41,SSW,205,3.1,4.5,32,0.00,,---,0.00,VWS V14.01,2013-04-06 15:49:00,
2013-04-06 08:55:00,58.1,26.9,29.41,South,183,3.6,5.4,30,0.00,,---,0.00,VWS V14.01,2013-04-06 15:55:00,
2013-04-06 09:01:00,58.1,26.0,29.41,SW,230,3.1,4.5,29,0.00,,---,0.00,VWS V14.01,2013-04-06 16:01:00,
2013-04-06 09:06:00,58.5,25.5,29.41,SW,232,5.8,6.3,28,0.00,,---,0.00,VWS V14.01,2013-04-06 16:06:00,
2013-04-06 09:11:00,58.8,25.8,29.41,SW,222,3.6,5.4,28,0.00,,---,0.00,VWS V14.01,2013-04-06 16:11:00,
2013-04-06 09:17:00,58.8,24.9,29.41,SSW,200,6.7,7.4,27,0.00,,---,0.00,VWS V14.01,2013-04-06 16:17:00,
2013-04-06 09:22:00,58.6,24.8,29.41,SW,223,6.9,7.4,27,0.00,,---,0.00,VWS V14.01,2013-04-06 16:22:00,
2013-04-06 09:27:00,58.6,24.8,29.41,SW,229,7.8,8.3,27,0.00,,---,0.00,VWS V14.01,2013-04-06 16:27:00,
2013-04-06 09:33:00,58.8,24.9,29.41,SW,220,6.3,6.7,27,0.00,,---,0.00,VWS V14.01,2013-04-06 16:33:00,
2013-04-06 09:38:00,59.4,25.4,29.41,WSW,239,5.4,7.4,27,0.00,,---,0.00,VWS V14.01,2013-04-06 16:38:00,
2013-04-06 09:44:00,59.2,25.2,29.41,SSW,213,6.9,8.3,27,0.00,,---,0.00,VWS V14.01,2013-04-06 16:44:00,
2013-04-06 09:50:00,59.7,24.8,29.41,SSW,207,4.5,8.7,26,0.00,,---,0.00,VWS V14.01,2013-04-06 16:50:00,
2013-04-06 09:55:00,59.9,25.0,29.41,SW,234,7.8,9.6,26,0.00,,---,0.00,VWS V14.01,2013-04-06 16:55:00,
2013-04-06 10:01:00,60.8,25.7,29.41,SSW,204,8.7,10.5,26,0.00,,---,0.00,VWS V14.01,2013-04-06 17:01:00,
2013-04-06 10:06:00,60.6,24.6,29.41,SW,230,7.4,7.8,25,0.00,,---,0.00,VWS V14.01,2013-04-06 17:06:00,
2013-04-06 10:12:00,61.2,25.1,29.41,SW,218,7.8,8.7,25,0.00,,---,0.00,VWS V14.01,2013-04-06 17:12:00,
2013-04-06 10:17:00,61.7,26.5,29.38,West,267,6.7,7.4,26,0.00,,---,0.00,VWS V14.01,2013-04-06 17:17:00,
2013-04-06 10:22:00,62.8,25.5,29.38,WSW,252,8.3,10.5,24,0.00,,---,0.00,VWS V14.01,2013-04-06 17:22:00,
2013-04-06 10:27:00,63.5,26.1,29.38,WSW,252,6.7,10.1,24,0.00,,---,0.00,VWS V14.01,2013-04-06 17:27:00,
2013-04-06 10:32:00,65.3,27.6,29.38,West,276,6.3,7.8,24,0.00,,---,0.00,VWS V14.01,2013-04-06 17:32:00,
2013-04-06 10:38:00,66.6,27.6,29.38,SW,236,5.4,9.6,23,0.00,,---,0.00,VWS V14.01,2013-04-06 17:38:00,
2013-04-06 10:43:00,65.3,26.6,29.38,SW,231,11.2,11.6,23,0.00,,---,0.00,VWS V14.01,2013-04-06 17:43:00,
2013-04-06 10:48:00,64.2,25.7,29.38,WSW,237,6.9,9.6,23,0.00,,---,0.00,VWS V14.01,2013-04-06 17:48:00,
2013-04-06 10:53:00,63.9,25.4,29.38,SSW,210,4.9,6.7,23,0.00,,---,0.00,VWS V14.01,2013-04-06 17:53:00,
2013-04-06 10:58:00,64.4,26.9,29.38,SW,229,10.1,11.0,24,0.00,,---,0.00,VWS V14.01,2013-04-06 17:58:00,
2013-04-06 11:03:00,64.8,26.1,29.38,SSW,213,6.3,7.4,23,0.00,,---,0.00,VWS V14.01,2013-04-06 18:03:00,
2013-04-06 11:08:00,64.9,26.3,29.38,WSW,240,10.1,10.1,23,0.00,,---,0.00,VWS V14.01,2013-04-06 18:08:00,
2013-04-06 11:14:00,66.4,27.5,29.38,WSW,254,11.0,11.0,23,0.00,,---,0.00,VWS V14.01,2013-04-06 18:14:00,
2013-04-06 11:19:00,65.5,26.7,29.38,WSW,255,7.8,14.3,23,0.00,,---,0.00,VWS V14.01,2013-04-06 18:19:00,
2013-04-06 11:25:00,66.4,27.5,29.38,WNW,282,9.2,11.0,23,0.00,,---,0.00,VWS V14.01,2013-04-06 18:25:00,
2013-04-06 11:30:00,66.0,27.2,29.38,WSW,249,6.7,11.0,23,0.00,,---,0.00,VWS V14.01,2013-04-06 18:30:00,
2013-04-06 11:35:00,65.3,26.6,29.41,West,261,11.0,11.0,23,0.00,,---,0.00,VWS V14.01,2013-04-06 18:35:00,
2013-04-06 11:40:00,66.0,27.2,29.41,West,272,6.9,12.1,23,0.00,,---,0.00,VWS V14.01,2013-04-06 18:40:00,
2013-04-06 11:45:00,67.5,28.4,29.41,SW,229,12.1,13.9,23,0.00,,---,0.00,VWS V14.01,2013-04-06 18:45:00,
2013-04-06 11:50:00,68.5,28.2,29.41,West,275,11.6,16.8,22,0.00,,---,0.00,VWS V14.01,2013-04-06 18:50:00,
2013-04-06 11:56:00,70.2,29.6,29.41,SW,223,11.0,13.0,22,0.00,,---,0.00,VWS V14.01,2013-04-06 18:56:00,
2013-04-06 12:01:00,68.5,28.2,29.41,West,262,13.0,13.0,22,0.00,,---,0.00,VWS V14.01,2013-04-06 19:01:00,
2013-04-06 12:07:00,69.1,28.7,29.41,West,279,9.2,13.4,22,0.00,,---,0.00,VWS V14.01,2013-04-06 19:07:00,
2013-04-06 12:13:00,68.9,28.5,29.41,WSW,252,13.9,15.2,22,0.00,,---,0.00,VWS V14.01,2013-04-06 19:13:00,
2013-04-06 12:18:00,67.1,27.0,29.41,SW,235,11.6,13.0,22,0.00,,---,0.00,VWS V14.01,2013-04-06 19:18:00,
2013-04-06 12:23:00,67.8,27.6,29.41,West,267,9.6,13.0,22,0.00,,---,0.00,VWS V14.01,2013-04-06 19:23:00,
2013-04-06 12:28:00,67.5,27.3,29.41,SW,233,9.6,11.0,22,0.00,,---,0.00,VWS V14.01,2013-04-06 19:28:00,
2013-04-06 12:33:00,67.8,28.7,29.41,West,281,6.9,9.6,23,0.00,,---,0.00,VWS V14.01,2013-04-06 19:33:00,
2013-04-06 12:38:00,68.0,27.8,29.41,SW,231,8.7,10.1,22,0.00,,---,0.00,VWS V14.01,2013-04-06 19:38:00,
2013-04-06 12:43:00,68.2,27.9,29.41,SW,227,8.7,11.2,22,0.00,,---,0.00,VWS V14.01,2013-04-06 19:43:00,
2013-04-06 12:49:00,68.2,27.9,29.41,West,268,11.0,11.2,22,0.00,,---,0.00,VWS V14.01,2013-04-06 19:49:00,
2013-04-06 12:54:00,69.8,29.3,29.41,West,259,9.2,11.2,22,0.00,,---,0.00,VWS V14.01,2013-04-06 19:54:00,
2013-04-06 13:00:00,68.7,28.4,29.41,WSW,256,10.5,14.3,22,0.00,,---,0.00,VWS V14.01,2013-04-06 20:00:00,
2013-04-06 13:05:00,68.7,28.4,29.38,West,275,7.8,9.6,22,0.00,,---,0.00,VWS V14.01,2013-04-06 20:05:00,
2013-04-06 13:10:00,69.3,28.8,29.38,West,266,6.7,9.2,22,0.00,,---,0.00,VWS V14.01,2013-04-06 20:10:00,
2013-04-06 13:15:00,69.6,29.1,29.38,WSW,248,12.1,14.8,22,0.00,,---,0.00,VWS V14.01,2013-04-06 20:15:00,
2013-04-06 13:20:00,69.4,29.0,29.38,West,262,10.1,11.0,22,0.00,,---,0.00,VWS V14.01,2013-04-06 20:20:00,
2013-04-06 13:26:00,68.2,27.9,29.38,WSW,253,12.1,12.1,22,0.00,,---,0.00,VWS V14.01,2013-04-06 20:26:00,
2013-04-06 13:31:00,67.1,28.1,29.38,WNW,283,6.3,7.8,23,0.00,,---,0.00,VWS V14.01,2013-04-06 20:31:00,
2013-04-06 13:36:00,67.5,27.3,29.38,West,263,9.2,12.5,22,0.00,,---,0.00,VWS V14.01,2013-04-06 20:36:00,
2013-04-06 13:42:00,68.4,28.1,29.38,WSW,257,6.7,8.7,22,0.00,,---,0.00,VWS V14.01,2013-04-06 20:42:00,
2013-04-06 13:47:00,68.0,27.8,29.38,WSW,250,11.2,11.2,22,0.00,,---,0.00,VWS V14.01,2013-04-06 20:47:00,
2013-04-06 13:52:00,67.8,27.6,29.38,WNW,284,12.5,13.0,22,0.00,,---,0.00,VWS V14.01,2013-04-06 20:52:00,
2013-04-06 13:57:00,66.6,27.6,29.38,West,278,13.0,13.0,23,0.00,,---,0.00,VWS V14.01,2013-04-06 20:57:00,
2013-04-06 14:02:00,65.8,27.0,29.38,WSW,258,8.7,13.0,23,0.00,,---,0.00,VWS V14.01,2013-04-06 21:02:00,
2013-04-06 14:07:00,67.3,28.2,29.38,WSW,251,11.0,13.9,23,0.00,,---,0.00,VWS V14.01,2013-04-06 21:07:00,
2013-04-06 14:12:00,68.4,28.1,29.38,WNW,299,9.2,9.2,22,0.00,,---,0.00,VWS V14.01,2013-04-06 21:12:00,
2013-04-06 14:17:00,68.9,28.5,29.38,SW,230,10.5,10.5,22,0.00,,---,0.00,VWS V14.01,2013-04-06 21:17:00,
2013-04-06 14:23:00,68.7,28.4,29.38,West,278,11.6,12.5,22,0.00,,---,0.00,VWS V14.01,2013-04-06 21:23:00,
2013-04-06 14:28:00,68.0,27.8,29.38,WNW,294,9.2,9.2,22,0.00,,---,0.00,VWS V14.01,2013-04-06 21:28:00,
2013-04-06 14:33:00,67.5,27.3,29.38,WNW,289,12.5,12.5,22,0.00,,---,0.00,VWS V14.01,2013-04-06 21:33:00,
2013-04-06 14:38:00,68.9,28.5,29.38,WSW,254,10.1,11.6,22,0.00,,---,0.00,VWS V14.01,2013-04-06 21:38:00,
2013-04-06 14:43:00,68.5,28.2,29.38,WSW,255,14.8,15.9,22,0.00,,---,0.00,VWS V14.01,2013-04-06 21:43:00,
2013-04-06 14:48:00,69.6,29.1,29.35,WSW,256,9.2,13.9,22,0.00,,---,0.00,VWS V14.01,2013-04-06 21:48:00,
2013-04-06 14:53:00,70.3,29.7,29.35,WSW,253,14.8,15.2,22,0.00,,---,0.00,VWS V14.01,2013-04-06 21:53:00,
2013-04-06 14:58:00,68.7,28.4,29.35,WSW,256,7.8,15.4,22,0.00,,---,0.00,VWS V14.01,2013-04-06 21:58:00,
2013-04-06 15:04:00,68.0,27.8,29.38,West,279,14.3,14.3,22,0.00,,---,0.00,VWS V14.01,2013-04-06 22:04:00,
2013-04-06 15:09:00,67.5,27.3,29.38,WNW,282,11.0,15.2,22,0.00,,---,0.00,VWS V14.01,2013-04-06 22:09:00,
2013-04-06 15:15:00,68.0,27.8,29.38,West,274,9.2,12.1,22,0.00,,---,0.00,VWS V14.01,2013-04-06 22:15:00,
2013-04-06 15:20:00,69.1,28.7,29.38,West,261,9.2,13.9,22,0.00,,---,0.00,VWS V14.01,2013-04-06 22:20:00,
2013-04-06 15:25:00,69.4,29.0,29.38,West,276,12.5,12.5,22,0.00,,---,0.00,VWS V14.01,2013-04-06 22:25:00,
2013-04-06 15:30:00,69.4,29.0,29.38,West,276,12.5,12.5,22,0.00,,---,0.00,VWS V14.01,2013-04-06 22:30:00,
2013-04-06 15:35:00,69.4,29.0,29.38,West,276,12.5,12.5,22,0.00,,---,0.00,VWS V14.01,2013-04-06 22:35:00,
2013-04-06 15:40:00,69.4,29.0,29.38,West,276,12.5,12.5,22,0.00,,---,0.00,VWS V14.01,2013-04-06 22:40:00,
2013-04-06 15:46:00,69.4,29.0,29.38,West,276,12.5,12.5,22,0.00,,---,0.00,VWS V14.01,2013-04-06 22:46:00,
2013-04-06 15:51:00,69.4,29.0,29.38,West,276,12.5,12.5,22,0.00,,---,0.00,VWS V14.01,2013-04-06 22:51:00,
2013-04-06 15:56:00,69.4,29.0,29.38,West,276,12.5,12.5,22,0.00,,---,0.00,VWS V14.01,2013-04-06 22:56:00,
2013-04-06 16:02:00,68.4,28.1,29.35,WSW,243,11.2,11.2,22,0.00,,---,0.00,VWS V14.01,2013-04-06 23:02:00,
2013-04-06 16:07:00,68.7,28.4,29.35,West,265,6.9,11.6,22,0.00,,---,0.00,VWS V14.01,2013-04-06 23:07:00,
2013-04-06 16:13:00,69.1,25.1,29.35,West,278,10.1,10.1,19,0.00,,---,0.00,VWS V14.01,2013-04-06 23:13:00,
2013-04-06 16:18:00,68.4,25.8,29.35,West,264,6.9,11.0,20,0.00,,---,0.00,VWS V14.01,2013-04-06 23:18:00,
2013-04-06 16:23:00,67.1,24.7,29.35,WSW,256,9.2,11.0,20,0.00,,---,0.00,VWS V14.01,2013-04-06 23:23:00,
2013-04-06 16:28:00,67.3,24.9,29.35,West,279,6.7,11.0,20,0.00,,---,0.00,VWS V14.01,2013-04-06 23:28:00,
2013-04-06 16:33:00,66.9,24.6,29.35,WSW,243,8.3,10.5,20,0.00,,---,0.00,VWS V14.01,2013-04-06 23:33:00,
2013-04-06 16:38:00,67.1,27.0,29.35,WSW,246,13.0,13.4,22,0.00,,---,0.00,VWS V14.01,2013-04-06 23:38:00,
2013-04-06 16:43:00,66.9,26.9,29.35,West,280,7.4,11.6,22,0.00,,---,0.00,VWS V14.01,2013-04-06 23:43:00,
2013-04-06 16:48:00,66.9,26.9,29.35,WSW,241,8.7,11.2,22,0.00,,---,0.00,VWS V14.01,2013-04-06 23:48:00,
2013-04-06 16:53:00,67.3,27.2,29.35,WSW,240,9.2,12.1,22,0.00,,---,0.00,VWS V14.01,2013-04-06 23:53:00,
2013-04-06 17:00:00,67.1,27.0,29.35,WSW,256,7.8,11.0,22,0.00,,---,0.00,VWS V14.01,2013-04-07 00:00:00,
2013-04-06 17:06:00,66.4,24.1,29.35,WSW,258,9.6,9.6,20,0.00,,---,0.00,VWS V14.01,2013-04-07 00:06:00,
2013-04-06 17:12:00,65.8,26.0,29.35,WNW,299,10.5,10.5,22,0.00,,---,0.00,VWS V14.01,2013-04-07 00:12:00,
2013-04-06 17:17:00,65.5,25.7,29.35,West,263,5.8,8.7,22,0.00,,---,0.00,VWS V14.01,2013-04-07 00:17:00,
2013-04-06 17:22:00,65.3,25.5,29.35,West,262,8.3,11.2,22,0.00,,---,0.00,VWS V14.01,2013-04-07 00:22:00,
2013-04-06 17:28:00,65.5,25.7,29.35,WNW,283,10.5,10.5,22,0.00,,---,0.00,VWS V14.01,2013-04-07 00:28:00,
2013-04-06 17:34:00,65.1,26.4,29.35,WSW,255,7.8,7.8,23,0.00,,---,0.00,VWS V14.01,2013-04-07 00:34:00,
2013-04-06 17:40:00,64.9,26.3,29.35,WNW,286,7.4,10.5,23,0.00,,---,0.00,VWS V14.01,2013-04-07 00:40:00,
2013-04-06 17:45:00,64.6,26.0,29.35,West,280,7.4,10.5,23,0.00,,---,0.00,VWS V14.01,2013-04-07 00:45:00,
2013-04-06 17:50:00,64.4,25.8,29.35,West,262,11.0,13.0,23,0.00,,---,0.00,VWS V14.01,2013-04-07 00:50:00,
2013-04-06 17:55:00,63.9,25.4,29.35,WNW,300,12.5,12.5,23,0.00,,---,0.00,VWS V14.01,2013-04-07 00:55:00,
2013-04-06 18:00:00,63.5,25.1,29.35,WNW,303,12.1,13.0,23,0.00,,---,0.00,VWS V14.01,2013-04-07 01:00:00,
2013-04-06 18:05:00,63.0,25.6,29.35,WNW,293,10.1,11.6,24,0.00,,---,0.00,VWS V14.01,2013-04-07 01:05:00,
2013-04-06 18:11:00,62.2,25.0,29.35,West,276,5.8,8.7,24,0.00,,---,0.00,VWS V14.01,2013-04-07 01:11:00,
2013-04-06 18:16:00,61.9,24.7,29.35,WNW,285,7.4,10.1,24,0.00,,---,0.00,VWS V14.01,2013-04-07 01:16:00,
2013-04-06 18:21:00,61.3,24.3,29.35,West,263,9.2,11.0,24,0.00,,---,0.00,VWS V14.01,2013-04-07 01:21:00,
2013-04-06 18:27:00,60.8,24.8,29.35,West,277,6.3,9.6,25,0.00,,---,0.00,VWS V14.01,2013-04-07 01:27:00,
2013-04-06 18:33:00,60.6,24.6,29.35,WSW,242,9.2,12.5,25,0.00,,---,0.00,VWS V14.01,2013-04-07 01:33:00,
2013-04-06 18:38:00,60.3,25.3,29.35,West,262,10.5,11.6,26,0.00,,---,0.00,VWS V14.01,2013-04-07 01:38:00,
2013-04-06 18:43:00,60.1,26.0,29.35,WSW,258,7.8,8.7,27,0.00,,---,0.00,VWS V14.01,2013-04-07 01:43:00,
2013-04-06 18:48:00,59.7,26.6,29.35,West,278,9.6,9.6,28,0.00,,---,0.00,VWS V14.01,2013-04-07 01:48:00,
2013-04-06 18:53:00,59.7,26.6,29.35,WNW,296,6.9,9.6,28,0.00,,---,0.00,VWS V14.01,2013-04-07 01:53:00,
2013-04-06 18:58:00,59.5,27.3,29.35,West,275,5.8,6.9,29,0.00,,---,0.00,VWS V14.01,2013-04-07 01:58:00,
2013-04-06 19:03:00,59.2,27.8,29.35,WNW,284,4.5,6.3,30,0.00,,---,0.00,VWS V14.01,2013-04-07 02:03:00,
2013-04-06 19:08:00,58.8,27.5,29.35,West,272,5.8,6.9,30,0.00,,---,0.00,VWS V14.01,2013-04-07 02:08:00,
2013-04-06 19:13:00,58.5,28.0,29.35,West,269,5.8,6.3,31,0.00,,---,0.00,VWS V14.01,2013-04-07 02:13:00,
2013-04-06 19:18:00,58.1,29.2,29.35,West,273,7.8,9.6,33,0.00,,---,0.00,VWS V14.01,2013-04-07 02:18:00,
2013-04-06 19:24:00,57.6,30.1,29.35,West,274,8.7,9.2,35,0.00,,---,0.00,VWS V14.01,2013-04-07 02:24:00,
2013-04-06 19:29:00,57.4,30.0,29.35,WNW,287,6.3,9.2,35,0.00,,---,0.00,VWS V14.01,2013-04-07 02:29:00,
2013-04-06 19:35:00,56.8,30.2,29.35,West,259,6.7,7.8,36,0.00,,---,0.00,VWS V14.01,2013-04-07 02:35:00,
2013-04-06 19:40:00,56.7,30.0,29.35,West,276,6.7,7.8,36,0.00,,---,0.00,VWS V14.01,2013-04-07 02:40:00,
2013-04-06 19:45:00,56.5,30.5,29.35,West,275,5.8,7.4,37,0.00,,---,0.00,VWS V14.01,2013-04-07 02:45:00,
2013-04-06 19:50:00,56.3,30.4,29.35,WSW,254,5.4,6.7,37,0.00,,---,0.00,VWS V14.01,2013-04-07 02:50:00,
2013-04-06 19:55:00,56.1,30.9,29.35,West,269,7.4,8.3,38,0.00,,---,0.00,VWS V14.01,2013-04-07 02:55:00,
2013-04-06 20:00:00,56.1,31.5,29.35,West,273,8.7,8.7,39,0.00,,---,0.00,VWS V14.01,2013-04-07 03:00:00,
2013-04-06 20:05:00,56.1,31.5,29.35,West,271,7.8,7.8,39,0.00,,---,0.00,VWS V14.01,2013-04-07 03:05:00,
2013-04-06 20:10:00,55.9,31.4,29.35,WSW,251,6.3,7.4,39,0.00,,---,0.00,VWS V14.01,2013-04-07 03:10:00,
2013-04-06 20:15:00,55.8,31.8,29.35,West,269,6.9,6.9,40,0.00,,---,0.00,VWS V14.01,2013-04-07 03:15:00,
2013-04-06 20:21:00,55.4,31.5,29.38,West,273,4.0,5.4,40,0.00,,---,0.00,VWS V14.01,2013-04-07 03:21:00,
2013-04-06 20:28:00,55.2,32.0,29.38,WSW,249,6.7,7.8,41,0.00,,---,0.00,VWS V14.01,2013-04-07 03:28:00,
2013-04-06 20:33:00,55.2,32.5,29.38,SW,232,6.7,9.2,42,0.00,,---,0.00,VWS V14.01,2013-04-07 03:33:00,
2013-04-06 20:38:00,55.4,32.7,29.38,WSW,242,8.3,8.3,42,0.00,,---,0.00,VWS V14.01,2013-04-07 03:38:00,
2013-04-06 20:43:00,55.2,32.5,29.38,West,259,6.9,9.2,42,0.00,,---,0.00,VWS V14.01,2013-04-07 03:43:00,
2013-04-06 20:48:00,55.0,32.4,29.38,West,268,6.3,8.3,42,0.00,,---,0.00,VWS V14.01,2013-04-07 03:48:00,
2013-04-06 20:53:00,54.9,33.4,29.38,WSW,258,5.4,7.4,44,0.00,,---,0.00,VWS V14.01,2013-04-07 03:53:00,
2013-04-06 20:58:00,54.7,33.2,29.38,WSW,258,4.9,6.9,44,0.00,,---,0.00,VWS V14.01,2013-04-07 03:58:00,
2013-04-06 21:00:00,54.5,33.6,29.38,WSW,239,4.5,5.4,45,0.00,,---,0.00,VWS V14.01,2013-04-07 04:00:00,
2013-04-06 21:01:00,54.5,33.6,29.38,WSW,239,6.3,6.3,45,0.00,,---,0.00,VWS V14.01,2013-04-07 04:01:00,
2013-04-06 21:03:00,54.5,34.2,29.38,WSW,237,7.8,8.7,46,0.00,,---,0.00,VWS V14.01,2013-04-07 04:03:00,
2013-04-06 21:04:00,54.5,34.2,29.38,WSW,254,6.9,7.8,46,0.00,,---,0.00,VWS V14.01,2013-04-07 04:04:00,
2013-04-06 21:09:00,54.1,33.8,29.38,WSW,238,5.8,6.7,46,0.00,,---,0.00,VWS V14.01,2013-04-07 04:09:00,
2013-04-06 21:14:00,54.0,34.2,29.38,WSW,237,6.9,8.3,47,0.00,,---,0.00,VWS V14.01,2013-04-07 04:14:00,
2013-04-06 21:20:00,53.8,34.6,29.38,WSW,243,6.9,9.2,48,0.00,,---,0.00,VWS V14.01,2013-04-07 04:20:00,
2013-04-06 21:25:00,54.0,34.7,29.38,SW,235,5.8,7.8,48,0.00,,---,0.00,VWS V14.01,2013-04-07 04:25:00,
2013-04-06 21:30:00,54.1,34.4,29.38,SW,230,5.4,9.6,47,0.00,,---,0.00,VWS V14.01,2013-04-07 04:30:00,
2013-04-06 21:35:00,54.1,34.4,29.38,WSW,250,4.9,5.4,47,0.00,,---,0.00,VWS V14.01,2013-04-07 04:35:00,
2013-04-06 21:40:00,54.1,34.4,29.38,WSW,246,5.4,6.7,47,0.00,,---,0.00,VWS V14.01,2013-04-07 04:40:00,
2013-04-06 21:45:00,54.1,34.4,29.38,SW,235,5.8,7.4,47,0.00,,---,0.00,VWS V14.01,2013-04-07 04:45:00,
2013-04-06 21:50:00,54.0,34.2,29.38,WSW,245,6.3,7.4,47,0.00,,---,0.00,VWS V14.01,2013-04-07 04:50:00,
2013-04-06 21:55:00,53.6,33.9,29.38,West,261,6.7,6.9,47,0.00,,---,0.00,VWS V14.01,2013-04-07 04:55:00,
2013-04-06 22:00:00,53.2,33.5,29.38,West,262,5.8,7.8,47,0.00,,---,0.00,VWS V14.01,2013-04-07 05:00:00,
2013-04-06 22:05:00,53.1,33.9,29.38,West,275,6.9,6.9,48,0.00,,---,0.00,VWS V14.01,2013-04-07 05:05:00,
2013-04-06 22:10:00,53.1,34.4,29.38,WSW,254,5.4,6.7,49,0.00,,---,0.00,VWS V14.01,2013-04-07 05:10:00,
2013-04-06 22:15:00,53.1,34.9,29.38,WSW,258,5.4,7.4,50,0.00,,---,0.00,VWS V14.01,2013-04-07 05:15:00,
2013-04-06 22:20:00,53.2,35.1,29.38,WSW,247,5.8,6.7,50,0.00,,---,0.00,VWS V14.01,2013-04-07 05:20:00,
2013-04-06 22:26:00,53.2,35.1,29.38,WSW,248,5.4,5.4,50,0.00,,---,0.00,VWS V14.01,2013-04-07 05:26:00,
2013-04-06 22:31:00,52.9,34.8,29.38,West,266,6.9,6.9,50,0.00,,---,0.00,VWS V14.01,2013-04-07 05:31:00,
2013-04-06 22:36:00,52.7,35.1,29.38,West,262,6.9,8.3,51,0.00,,---,0.00,VWS V14.01,2013-04-07 05:36:00,
2013-04-06 22:42:00,52.9,35.8,29.38,WSW,245,5.4,5.8,52,0.00,,---,0.00,VWS V14.01,2013-04-07 05:42:00,
2013-04-06 22:47:00,52.9,35.8,29.38,WSW,240,6.3,6.3,52,0.00,,---,0.00,VWS V14.01,2013-04-07 05:47:00,
2013-04-06 22:52:00,52.9,35.3,29.41,SW,234,3.6,4.9,51,0.00,,---,0.00,VWS V14.01,2013-04-07 05:52:00,
2013-04-06 22:57:00,52.7,35.1,29.41,WSW,250,4.0,4.5,51,0.00,,---,0.00,VWS V14.01,2013-04-07 05:57:00,
2013-04-06 23:03:00,52.7,35.6,29.41,WSW,248,4.9,4.9,52,0.00,,---,0.00,VWS V14.01,2013-04-07 06:03:00,
2013-04-06 23:08:00,52.7,35.6,29.41,SW,234,5.4,5.4,52,0.00,,---,0.00,VWS V14.01,2013-04-07 06:08:00,
2013-04-06 23:13:00,52.9,35.3,29.41,WSW,251,5.8,6.9,51,0.00,,---,0.00,VWS V14.01,2013-04-07 06:13:00,
2013-04-06 23:18:00,53.1,35.4,29.41,West,264,4.5,6.9,51,0.00,,---,0.00,VWS V14.01,2013-04-07 06:18:00,
2013-04-06 23:23:00,53.1,34.9,29.41,WSW,251,6.3,6.3,50,0.00,,---,0.00,VWS V14.01,2013-04-07 06:23:00,
2013-04-06 23:28:00,53.1,34.4,29.41,SW,232,6.3,8.3,49,0.00,,---,0.00,VWS V14.01,2013-04-07 06:28:00,
2013-04-06 23:33:00,53.1,34.4,29.41,WSW,252,6.7,6.9,49,0.00,,---,0.00,VWS V14.01,2013-04-07 06:33:00,
2013-04-06 23:38:00,53.1,34.4,29.41,West,268,6.3,6.7,49,0.00,,---,0.00,VWS V14.01,2013-04-07 06:38:00,
2013-04-06 23:43:00,52.9,34.3,29.41,WSW,257,4.0,4.9,49,0.00,,---,0.00,VWS V14.01,2013-04-07 06:43:00,
2013-04-06 23:50:00,52.7,34.1,29.41,West,263,4.9,6.7,49,0.00,,---,0.00,VWS V14.01,2013-04-07 06:50:00,
2013-04-06 23:57:00,53.1,34.9,29.41,SW,220,6.3,6.9,50,0.00,,---,0.00,VWS V14.01,2013-04-07 06:57:00,